FW0639 Weather Reports


Display with metric or nautical units.
time (UTC)temp
F
wind
direction
speed
MPH
gust
MPH
rain 1hr
in
rain 24hr
in
rain mn
in
humidity
%
barometer
mb
20240229002755 41 164 6.0 17.0 0.00 0.02 0.02 55 1008.0
20240229000625 43 192 8.0 21.0 0.00 0.02 0.02 52 1008.5
20240228235638 42 171 7.0 19.0 0.00 0.02 0.02 54 1008.5
20240228234702 42 204 5.0 15.0 0.00 0.02 0.02 54 1008.6
20240228233719 42 192 4.0 13.0 0.00 0.02 0.02 53 1009.0
20240228232702 42 190 6.0 20.0 0.00 0.02 0.02 52 1009.1
20240228231722 43 150 6.0 20.0 0.00 0.02 0.02 52 1009.2
20240228230713 43 152 5.0 18.0 0.00 0.02 0.02 51 1009.5
20240228225704 43 184 6.0 15.0 0.00 0.02 0.02 51 1009.9
20240228224656 43 194 4.0 15.0 0.00 0.02 0.02 52 1010.0
20240228223702 43 180 6.0 20.0 0.00 0.02 0.02 52 1010.2
20240228222726 42 226 8.0 20.0 0.00 0.02 0.02 51 1010.3
20240228221653 42 149 7.0 18.0 0.00 0.02 0.02 52 1010.5
20240228215519 41 172 7.0 18.0 0.00 0.02 0.02 54 1011.0
20240228214503 41 187 8.0 23.0 0.00 0.02 0.02 53 1011.1
20240228213500 41 187 8.0 23.0 0.00 0.02 0.02 53 1011.2
20240228212437 41 178 8.0 18.0 0.00 0.02 0.02 53 1011.1
20240228211441 41 176 8.0 17.0 0.00 0.02 0.02 53 1011.5
20240228210420 41 171 8.0 17.0 0.00 0.02 0.02 52 1011.7
20240228205428 41 178 7.0 16.0 0.00 0.02 0.02 52 1012.0
20240228204440 41 172 7.0 16.0 0.00 0.02 0.02 52 1012.2
20240228202323 41 137 8.0 19.0 0.00 0.01 0.01 52 1012.7
20240228201312 40 184 6.0 13.0 0.00 0.01 0.01 53 1012.8
20240228200304 40 195 6.0 17.0 0.00 0.02 0.01 54 1013.2
20240228195249 40 212 8.0 19.0 0.00 0.02 0.01 55 1013.4
20240228194234 40 176 7.0 18.0 0.00 0.02 0.01 53 1013.7
20240228193234 41 183 8.0 18.0 0.00 0.02 0.01 53 1013.9
20240228191114 41 186 8.0 22.0 0.00 0.03 0.01 51 1014.6
20240228190131 41 177 9.0 22.0 0.00 0.04 0.01 51 1014.9
20240228185123 41 174 7.0 18.0 0.00 0.04 0.01 51 1015.0
20240228184137 41 151 7.0 21.0 0.00 0.04 0.01 52 1015.2
20240228183148 40 190 10.0 24.0 0.00 0.05 0.01 53 1015.3
20240228182146 40 206 11.0 24.0 0.00 0.05 0.01 52 1015.4
20240228181140 40 172 10.0 24.0 0.00 0.05 0.01 52 1015.7
20240228180123 39 182 10.0 23.0 0.00 0.05 0.01 52 1016.0
20240228173940 38 118 8.0 20.0 0.00 0.05 0.01 53 1016.6
20240228172908 38 197 9.0 23.0 0.00 0.05 0.01 54 1016.7
20240228171930 38 168 9.0 23.0 0.00 0.04 0.00 54 1016.6
20240228170917 37 166 9.0 22.0 0.00 0.04 0.00 56 1016.6
20240228165915 36 200 7.0 21.0 0.00 0.04 0.00 56 1016.9
20240228164846 36 205 8.0 20.0 0.00 0.04 0.00 56 1017.2